sensor_id;sensor_type;location;lat;lon;timestamp;pressure;altitude;pressure_sealevel;temperature;humidity
59690;BME280;45557;50.298;18.930;2022-09-25T00:01:59;98084.16;;;10.03;75.21
59690;BME280;45557;50.298;18.930;2022-09-25T00:07:54;98081.70;;;10.09;75.38
59690;BME280;45557;50.298;18.930;2022-09-25T00:13:39;98078.02;;;10.12;75.32
59690;BME280;45557;50.298;18.930;2022-09-25T00:19:23;98073.10;;;10.18;75.11
59690;BME280;45557;50.298;18.930;2022-09-25T00:25:09;98072.52;;;10.15;74.69
59690;BME280;45557;50.298;18.930;2022-09-25T00:30:39;98063.45;;;10.11;75.25
59690;BME280;45557;50.298;18.930;2022-09-25T00:36:03;98059.77;;;10.10;75.64
59690;BME280;45557;50.298;18.930;2022-09-25T00:41:29;98060.67;;;10.16;76.13
59690;BME280;45557;50.298;18.930;2022-09-25T00:47:15;98060.48;;;10.22;76.08
59690;BME280;45557;50.298;18.930;2022-09-25T00:53:05;98053.02;;;10.25;76.18
59690;BME280;45557;50.298;18.930;2022-09-25T00:58:33;98046.20;;;10.32;76.06
59690;BME280;45557;50.298;18.930;2022-09-25T01:04:03;98045.77;;;10.36;76.26
59690;BME280;45557;50.298;18.930;2022-09-25T01:10:01;98042.50;;;10.33;76.23
59690;BME280;45557;50.298;18.930;2022-09-25T01:29:10;98046.34;;;10.38;76.41
59690;BME280;45557;50.298;18.930;2022-09-25T01:41:05;98041.72;;;10.48;76.32
59690;BME280;45557;50.298;18.930;2022-09-25T01:46:30;98041.93;;;10.52;76.28
59690;BME280;45557;50.298;18.930;2022-09-25T01:51:57;98044.02;;;10.53;76.48
59690;BME280;45557;50.298;18.930;2022-09-25T01:57:41;98046.96;;;10.53;76.45
59690;BME280;45557;50.298;18.930;2022-09-25T02:03:47;98044.45;;;10.55;76.81
59690;BME280;45557;50.298;18.930;2022-09-25T02:15:01;98037.88;;;10.60;77.04
59690;BME280;45557;50.298;18.930;2022-09-25T02:26:34;98046.80;;;10.54;76.92
59690;BME280;45557;50.298;18.930;2022-09-25T02:32:04;98046.75;;;10.50;77.09
59690;BME280;45557;50.298;18.930;2022-09-25T02:37:28;98042.92;;;10.54;77.12
59690;BME280;45557;50.298;18.930;2022-09-25T02:43:02;98041.08;;;10.61;77.56
59690;BME280;45557;50.298;18.930;2022-09-25T02:48:53;98033.67;;;10.62;77.25
59690;BME280;45557;50.298;18.930;2022-09-25T02:54:31;98035.77;;;10.64;77.09
59690;BME280;45557;50.298;18.930;2022-09-25T02:59:59;98033.15;;;10.68;76.92
59690;BME280;45557;50.298;18.930;2022-09-25T03:05:45;98026.79;;;10.67;76.65
59690;BME280;45557;50.298;18.930;2022-09-25T03:11:19;98024.11;;;10.64;76.94
59690;BME280;45557;50.298;18.930;2022-09-25T03:16:54;98018.61;;;10.64;76.96
59690;BME280;45557;50.298;18.930;2022-09-25T03:22:21;98016.83;;;10.60;76.58
59690;BME280;45557;50.298;18.930;2022-09-25T03:27:48;98011.23;;;10.48;76.67
59690;BME280;45557;50.298;18.930;2022-09-25T03:33:11;98007.25;;;10.48;77.12
59690;BME280;45557;50.298;18.930;2022-09-25T03:38:42;98008.23;;;10.56;77.25
59690;BME280;45557;50.298;18.930;2022-09-25T03:44:04;98010.44;;;10.60;77.08
59690;BME280;45557;50.298;18.930;2022-09-25T03:49:27;98004.98;;;10.58;76.98
59690;BME280;45557;50.298;18.930;2022-09-25T03:54:51;98010.31;;;10.63;76.97
59690;BME280;45557;50.298;18.930;2022-09-25T04:00:13;98009.90;;;10.64;76.93
59690;BME280;45557;50.298;18.930;2022-09-25T04:05:38;98011.00;;;10.67;76.77
59690;BME280;45557;50.298;18.930;2022-09-25T04:11:01;98013.04;;;10.68;76.77
59690;BME280;45557;50.298;18.930;2022-09-25T04:16:24;98009.67;;;10.72;76.68
59690;BME280;45557;50.298;18.930;2022-09-25T04:21:46;98010.45;;;10.75;76.80
59690;BME280;45557;50.298;18.930;2022-09-25T04:27:10;98011.14;;;10.75;76.60
59690;BME280;45557;50.298;18.930;2022-09-25T04:32:53;98007.93;;;10.74;76.75
59690;BME280;45557;50.298;18.930;2022-09-25T04:38:43;98011.73;;;10.74;76.69
59690;BME280;45557;50.298;18.930;2022-09-25T04:44:25;98006.66;;;10.80;77.05
59690;BME280;45557;50.298;18.930;2022-09-25T04:49:52;98014.16;;;10.85;76.94
59690;BME280;45557;50.298;18.930;2022-09-25T04:55:38;98021.66;;;10.86;77.29
59690;BME280;45557;50.298;18.930;2022-09-25T05:01:14;98022.95;;;10.92;76.94
59690;BME280;45557;50.298;18.930;2022-09-25T05:07:05;98029.73;;;10.90;76.62
59690;BME280;45557;50.298;18.930;2022-09-25T05:12:36;98031.48;;;10.85;76.73
59690;BME280;45557;50.298;18.930;2022-09-25T05:18:17;98035.13;;;10.78;77.15
59690;BME280;45557;50.298;18.930;2022-09-25T05:23:55;98036.83;;;10.89;77.77
59690;BME280;45557;50.298;18.930;2022-09-25T05:29:19;98036.29;;;10.97;78.12
59690;BME280;45557;50.298;18.930;2022-09-25T05:34:49;98036.14;;;11.06;78.36
59690;BME280;45557;50.298;18.930;2022-09-25T05:40:16;98030.76;;;11.14;77.79
59690;BME280;45557;50.298;18.930;2022-09-25T05:45:41;98030.06;;;11.20;76.91
59690;BME280;45557;50.298;18.930;2022-09-25T05:51:05;98017.91;;;11.22;76.49
59690;BME280;45557;50.298;18.930;2022-09-25T05:56:52;98014.40;;;11.21;76.67
59690;BME280;45557;50.298;18.930;2022-09-25T06:02:15;98010.67;;;11.23;77.07
59690;BME280;45557;50.298;18.930;2022-09-25T06:07:58;98010.86;;;11.25;76.93
59690;BME280;45557;50.298;18.930;2022-09-25T06:14:40;98002.64;;;11.21;76.93
59690;BME280;45557;50.298;18.930;2022-09-25T06:21:22;98007.02;;;11.28;77.09
59690;BME280;45557;50.298;18.930;2022-09-25T06:27:59;98010.52;;;11.31;77.26
59690;BME280;45557;50.298;18.930;2022-09-25T06:34:36;98012.13;;;11.36;77.62
59690;BME280;45557;50.298;18.930;2022-09-25T06:40:42;98014.45;;;11.47;78.07
59690;BME280;45557;50.298;18.930;2022-09-25T06:47:04;98014.23;;;11.57;78.19
59690;BME280;45557;50.298;18.930;2022-09-25T06:53:27;98008.80;;;11.67;77.90
59690;BME280;45557;50.298;18.930;2022-09-25T07:00:06;98008.00;;;11.77;78.43
59690;BME280;45557;50.298;18.930;2022-09-25T07:06:49;98002.41;;;11.87;78.38
59690;BME280;45557;50.298;18.930;2022-09-25T07:12:51;98004.42;;;11.88;77.96
59690;BME280;45557;50.298;18.930;2022-09-25T07:18:33;98005.61;;;11.91;77.94
59690;BME280;45557;50.298;18.930;2022-09-25T07:24:46;98012.85;;;11.97;78.54
59690;BME280;45557;50.298;18.930;2022-09-25T07:31:32;98008.48;;;12.13;78.62
59690;BME280;45557;50.298;18.930;2022-09-25T07:38:16;98000.81;;;12.36;78.34
59690;BME280;45557;50.298;18.930;2022-09-25T07:44:47;98003.30;;;12.62;78.18
59690;BME280;45557;50.298;18.930;2022-09-25T07:50:31;98008.48;;;12.77;77.91
59690;BME280;45557;50.298;18.930;2022-09-25T07:56:56;98010.96;;;12.95;77.50
59690;BME280;45557;50.298;18.930;2022-09-25T08:03:19;98007.48;;;13.04;77.08
59690;BME280;45557;50.298;18.930;2022-09-25T08:41:01;97995.86;;;13.81;75.63
59690;BME280;45557;50.298;18.930;2022-09-25T08:59:00;97991.07;;;14.12;75.78
59690;BME280;45557;50.298;18.930;2022-09-25T09:05:19;97983.40;;;14.22;75.29
59690;BME280;45557;50.298;18.930;2022-09-25T09:10:44;97979.82;;;14.34;75.00
59690;BME280;45557;50.298;18.930;2022-09-25T09:23:19;97975.52;;;14.48;75.47
59690;BME280;45557;50.298;18.930;2022-09-25T09:29:12;97971.77;;;14.57;76.00
59690;BME280;45557;50.298;18.930;2022-09-25T10:00:26;97958.35;;;16.17;71.57
59690;BME280;45557;50.298;18.930;2022-09-25T10:07:15;97953.53;;;15.93;70.77
59690;BME280;45557;50.298;18.930;2022-09-25T10:12:43;97946.06;;;15.65;69.49
59690;BME280;45557;50.298;18.930;2022-09-25T10:18:07;97946.41;;;15.37;70.53
59690;BME280;45557;50.298;18.930;2022-09-25T10:29:02;97942.02;;;15.37;71.69
59690;BME280;45557;50.298;18.930;2022-09-25T10:34:26;97940.14;;;15.46;71.60
59690;BME280;45557;50.298;18.930;2022-09-25T10:40:00;97943.61;;;15.54;71.32
59690;BME280;45557;50.298;18.930;2022-09-25T10:45:32;97936.84;;;15.72;70.68
59690;BME280;45557;50.298;18.930;2022-09-25T10:51:08;97938.98;;;15.79;69.48
59690;BME280;45557;50.298;18.930;2022-09-25T11:08:44;97928.74;;;16.17;68.49
59690;BME280;45557;50.298;18.930;2022-09-25T11:21:03;97920.92;;;16.55;67.52
59690;BME280;45557;50.298;18.930;2022-09-25T13:30:26;97818.02;;;19.73;65.12
59690;BME280;45557;50.298;18.930;2022-09-25T13:37:17;97815.16;;;19.72;64.84
59690;BME280;45557;50.298;18.930;2022-09-25T14:04:15;97795.67;;;19.32;65.21
59690;BME280;45557;50.298;18.930;2022-09-25T14:10:52;97794.73;;;19.21;62.67
59690;BME280;45557;50.298;18.930;2022-09-25T14:17:41;97788.11;;;18.87;63.70
59690;BME280;45557;50.298;18.930;2022-09-25T14:24:44;97776.55;;;18.56;62.62
59690;BME280;45557;50.298;18.930;2022-09-25T14:46:03;97773.34;;;18.72;67.06
59690;BME280;45557;50.298;18.930;2022-09-25T14:53:02;97778.86;;;19.00;67.42
59690;BME280;45557;50.298;18.930;2022-09-25T14:59:44;97776.61;;;19.20;65.86
59690;BME280;45557;50.298;18.930;2022-09-25T15:06:30;97775.94;;;19.13;63.24
59690;BME280;45557;50.298;18.930;2022-09-25T15:19:53;97749.17;;;18.37;63.01
59690;BME280;45557;50.298;18.930;2022-09-25T15:26:39;97746.48;;;17.98;63.77
59690;BME280;45557;50.298;18.930;2022-09-25T15:33:23;97743.57;;;17.80;64.51
59690;BME280;45557;50.298;18.930;2022-09-25T15:40:16;97736.02;;;17.52;64.62
59690;BME280;45557;50.298;18.930;2022-09-25T15:46:59;97738.87;;;17.23;65.27
59690;BME280;45557;50.298;18.930;2022-09-25T15:53:56;97739.09;;;16.92;66.05
59690;BME280;45557;50.298;18.930;2022-09-25T16:00:31;97744.28;;;16.55;67.05
59690;BME280;45557;50.298;18.930;2022-09-25T16:14:36;97742.75;;;15.97;69.25
59690;BME280;45557;50.298;18.930;2022-09-25T16:21:18;97743.43;;;15.75;70.25
59690;BME280;45557;50.298;18.930;2022-09-25T16:46:22;97741.65;;;15.11;73.37
59690;BME280;45557;50.298;18.930;2022-09-25T17:07:29;97747.15;;;15.77;79.37
59690;BME280;45557;50.298;18.930;2022-09-25T17:15:16;97742.13;;;16.27;79.36
59690;BME280;45557;50.298;18.930;2022-09-25T17:22:15;97733.35;;;16.51;75.02
59690;BME280;45557;50.298;18.930;2022-09-25T19:36:52;97737.23;;;13.87;76.77
59690;BME280;45557;50.298;18.930;2022-09-25T19:43:40;97732.79;;;13.73;77.02
59690;BME280;45557;50.298;18.930;2022-09-25T19:50:24;97727.14;;;13.67;76.99
59690;BME280;45557;50.298;18.930;2022-09-25T19:57:11;97731.86;;;13.63;77.16
59690;BME280;45557;50.298;18.930;2022-09-25T20:03:58;97734.89;;;13.59;77.48
59690;BME280;45557;50.298;18.930;2022-09-25T20:10:42;97732.65;;;13.54;77.59
59690;BME280;45557;50.298;18.930;2022-09-25T20:17:30;97729.17;;;13.48;77.89
59690;BME280;45557;50.298;18.930;2022-09-25T20:24:16;97722.77;;;13.44;78.03
59690;BME280;45557;50.298;18.930;2022-09-25T20:30:54;97720.56;;;13.44;77.64
59690;BME280;45557;50.298;18.930;2022-09-25T20:37:39;97724.43;;;13.32;77.39
59690;BME280;45557;50.298;18.930;2022-09-25T20:44:57;97719.43;;;13.12;77.69
59690;BME280;45557;50.298;18.930;2022-09-25T20:51:46;97708.48;;;12.96;76.94
59690;BME280;45557;50.298;18.930;2022-09-25T20:59:12;97696.35;;;12.73;77.08
59690;BME280;45557;50.298;18.930;2022-09-25T21:06:00;97693.19;;;12.48;77.41
59690;BME280;45557;50.298;18.930;2022-09-25T21:12:43;97690.98;;;12.34;77.89
59690;BME280;45557;50.298;18.930;2022-09-25T21:19:27;97689.49;;;12.18;78.51
59690;BME280;45557;50.298;18.930;2022-09-25T21:26:12;97684.75;;;12.03;78.83
59690;BME280;45557;50.298;18.930;2022-09-25T21:33:01;97689.23;;;11.95;79.29
59690;BME280;45557;50.298;18.930;2022-09-25T21:39:56;97681.27;;;11.84;79.36
59690;BME280;45557;50.298;18.930;2022-09-25T21:53:41;97676.70;;;11.59;79.45
59690;BME280;45557;50.298;18.930;2022-09-25T22:00:49;97673.64;;;11.48;80.09
59690;BME280;45557;50.298;18.930;2022-09-25T22:20:53;97650.30;;;11.28;81.13
59690;BME280;45557;50.298;18.930;2022-09-25T22:27:41;97644.08;;;11.19;81.03
59690;BME280;45557;50.298;18.930;2022-09-25T22:34:30;97641.11;;;11.12;81.14
59690;BME280;45557;50.298;18.930;2022-09-25T22:41:14;97639.20;;;11.04;81.20
59690;BME280;45557;50.298;18.930;2022-09-25T22:48:10;97635.98;;;10.93;81.21
59690;BME280;45557;50.298;18.930;2022-09-25T22:55:12;97646.17;;;10.91;81.61
59690;BME280;45557;50.298;18.930;2022-09-25T23:02:10;97653.05;;;10.86;81.45
59690;BME280;45557;50.298;18.930;2022-09-25T23:08:59;97648.87;;;10.78;81.86
59690;BME280;45557;50.298;18.930;2022-09-25T23:21:56;97639.98;;;10.91;83.35
59690;BME280;45557;50.298;18.930;2022-09-25T23:28:46;97633.23;;;10.99;83.55
59690;BME280;45557;50.298;18.930;2022-09-25T23:35:30;97622.00;;;11.12;83.66
59690;BME280;45557;50.298;18.930;2022-09-25T23:48:55;97594.02;;;11.30;83.88
59690;BME280;45557;50.298;18.930;2022-09-25T23:55:41;97591.32;;;11.41;83.86
